| time (UTC) | temp F | wind direction | speed MPH | gust MPH | rain 1hr in | rain 24hr in | rain mn in | humidity % | barometer mb |
| 20260508002137 | 51 | 258 | 0.0 | 1.0 | 0.00 | 0.01 | 0.01 | 71 | 1012.4 |
| 20260508001631 | 51 | 258 | 0.0 | 0.0 | 0.00 | 0.01 | 0.01 | 67 | 1012.6 |
| 20260508001128 | 51 | 228 | 0.0 | 0.0 | 0.00 | 0.01 | 0.01 | 67 | 1012.2 |
| 20260508000623 | 53 | 189 | 0.0 | 0.0 | 0.00 | 0.01 | 0.01 | 63 | 1012.3 |
| 20260508000121 | 54 | 194 | 0.0 | 0.0 | 0.00 | 0.01 | 0.01 | 62 | 1012.0 |
| 20260507235618 | 55 | 249 | 0.0 | 0.0 | 0.00 | 0.01 | 0.01 | 54 | 1012.1 |
| 20260507235115 | 56 | 234 | 0.0 | 0.0 | 0.00 | 0.01 | 0.01 | 53 | 1012.1 |
| 20260507234611 | 57 | 236 | 1.0 | 2.0 | 0.00 | 0.01 | 0.01 | 47 | 1012.0 |
| 20260507234108 | 57 | 251 | 2.0 | 6.0 | 0.00 | 0.01 | 0.01 | 46 | 1012.2 |
| 20260507233605 | 58 | 296 | 0.0 | 1.0 | 0.00 | 0.01 | 0.01 | 47 | 1011.9 |
| 20260507233104 | 58 | 286 | 0.0 | 0.0 | 0.00 | 0.01 | 0.01 | 49 | 1012.0 |
| 20260507232600 | 59 | 286 | 0.0 | 1.0 | 0.00 | 0.01 | 0.01 | 46 | 1011.7 |
| 20260507232057 | 59 | 255 | 0.0 | 3.0 | 0.00 | 0.01 | 0.01 | 47 | 1011.7 |
| 20260507231553 | 59 | 130 | 0.0 | 0.0 | 0.00 | 0.01 | 0.01 | 41 | 1011.7 |
| 20260507231051 | 60 | 237 | 1.0 | 3.0 | 0.00 | 0.01 | 0.01 | 41 | 1011.7 |
| 20260507230547 | 59 | 323 | 1.0 | 1.0 | 0.00 | 0.01 | 0.01 | 45 | 1011.6 |
| 20260507230044 | 59 | 30 | 0.0 | 1.0 | 0.00 | 0.01 | 0.01 | 59 | 1011.4 |
| 20260507225538 | 59 | 32 | 0.0 | 1.0 | 0.00 | 0.01 | 0.01 | 42 | 1011.6 |
| 20260507225035 | 59 | 275 | 1.0 | 2.0 | 0.00 | 0.01 | 0.01 | 44 | 1011.6 |
| 20260507224531 | 59 | 319 | 0.0 | 3.0 | 0.00 | 0.01 | 0.01 | 43 | 1011.6 |
| 20260507224028 | 59 | 256 | 2.0 | 6.0 | 0.00 | 0.01 | 0.01 | 45 | 1011.6 |
| 20260507223524 | 60 | 219 | 1.0 | 6.0 | 0.00 | 0.01 | 0.01 | 39 | 1011.6 |
| 20260507223021 | 62 | 223 | 3.0 | 6.0 | 0.00 | 0.01 | 0.01 | 40 | 1011.7 |
| 20260507222518 | 62 | 20 | 0.0 | 2.0 | 0.00 | 0.01 | 0.01 | 43 | 1011.6 |
| 20260507222014 | 61 | 259 | 1.0 | 2.0 | 0.00 | 0.01 | 0.01 | 41 | 1011.7 |
| 20260507221511 | 62 | 237 | 5.0 | 8.0 | 0.00 | 0.01 | 0.01 | 41 | 1011.6 |
| 20260507221008 | 62 | 231 | 4.0 | 9.0 | 0.00 | 0.01 | 0.01 | 42 | 1011.3 |
| 20260507220505 | 62 | 206 | 4.0 | 6.0 | 0.00 | 0.01 | 0.01 | 43 | 1011.2 |
| 20260507220002 | 63 | 240 | 2.0 | 4.0 | 0.00 | 0.01 | 0.01 | 39 | 1011.1 |
| 20260507215458 | 63 | 158 | 3.0 | 4.0 | 0.00 | 0.01 | 0.01 | 39 | 1011.0 |
| 20260507214956 | 63 | 232 | 6.0 | 10.0 | 0.00 | 0.01 | 0.01 | 43 | 1011.1 |
| 20260507214453 | 63 | 213 | 5.0 | 11.0 | 0.00 | 0.01 | 0.01 | 39 | 1011.1 |
| 20260507213949 | 61 | 240 | 2.0 | 6.0 | 0.00 | 0.01 | 0.01 | 42 | 1011.0 |
| 20260507213445 | 61 | 306 | 0.0 | 3.0 | 0.00 | 0.01 | 0.01 | 40 | 1011.1 |
| 20260507212943 | 63 | 261 | 3.0 | 4.0 | 0.00 | 0.01 | 0.01 | 39 | 1010.9 |
| 20260507212438 | 63 | 256 | 3.0 | 3.0 | 0.00 | 0.01 | 0.01 | 44 | 1010.9 |
| 20260507211936 | 62 | 257 | 4.0 | 7.0 | 0.00 | 0.01 | 0.01 | 41 | 1011.0 |
| 20260507211427 | 63 | 289 | 3.0 | 6.0 | 0.00 | 0.01 | 0.01 | 43 | 1010.9 |
| 20260507210923 | 62 | 209 | 6.0 | 11.0 | 0.00 | 0.01 | 0.01 | 38 | 1010.8 |
| 20260507210420 | 61 | 228 | 2.0 | 3.0 | 0.00 | 0.01 | 0.01 | 46 | 1010.7 |
| 20260507205917 | 60 | 53 | 0.0 | 3.0 | 0.00 | 0.01 | 0.01 | 50 | 1011.0 |
| 20260507205414 | 60 | 271 | 4.0 | 6.0 | 0.00 | 0.01 | 0.01 | 48 | 1010.8 |
| 20260507204910 | 60 | 261 | 2.0 | 6.0 | 0.00 | 0.01 | 0.01 | 45 | 1010.8 |
| 20260507204406 | 62 | 223 | 9.0 | 16.0 | 0.00 | 0.01 | 0.01 | 43 | 1010.9 |
| 20260507203904 | 61 | 226 | 3.0 | 3.0 | 0.00 | 0.01 | 0.01 | 45 | 1010.8 |
| 20260507203402 | 61 | 52 | 2.0 | 4.0 | 0.00 | 0.01 | 0.01 | 44 | 1010.8 |
| 20260507202858 | 63 | 260 | 2.0 | 9.0 | 0.00 | 0.01 | 0.01 | 39 | 1011.0 |
| 20260507202354 | 63 | 253 | 4.0 | 9.0 | 0.00 | 0.01 | 0.01 | 44 | 1010.9 |
| 20260507201850 | 63 | 261 | 4.0 | 6.0 | 0.00 | 0.01 | 0.01 | 43 | 1010.9 |
| 20260507201346 | 63 | 77 | 4.0 | 13.0 | 0.00 | 0.01 | 0.01 | 40 | 1010.9 |
| 20260507200843 | 62 | 139 | 0.0 | 3.0 | 0.00 | 0.01 | 0.01 | 46 | 1011.1 |
| 20260507200339 | 63 | 231 | 2.0 | 3.0 | 0.00 | 0.01 | 0.01 | 44 | 1011.0 |
| 20260507195835 | 63 | 148 | 0.0 | 2.0 | 0.00 | 0.01 | 0.01 | 44 | 1011.0 |
| 20260507195332 | 62 | 224 | 0.0 | 4.0 | 0.00 | 0.01 | 0.01 | 46 | 1011.4 |
| 20260507194829 | 62 | 89 | 4.0 | 6.0 | 0.00 | 0.01 | 0.01 | 42 | 1011.4 |
| 20260507194325 | 64 | 246 | 7.0 | 8.0 | 0.00 | 0.01 | 0.01 | 42 | 1011.3 |
| 20260507193822 | 62 | 251 | 4.0 | 7.0 | 0.00 | 0.01 | 0.01 | 48 | 1011.6 |
| 20260507193319 | 62 | 205 | 4.0 | 8.0 | 0.00 | 0.01 | 0.01 | 41 | 1011.3 |
| 20260507192814 | 63 | 203 | 5.0 | 11.0 | 0.00 | 0.01 | 0.01 | 44 | 1011.3 |
| 20260507192312 | 63 | 253 | 2.0 | 7.0 | 0.00 | 0.01 | 0.01 | 46 | 1011.3 |
| 20260507191808 | 62 | 240 | 6.0 | 9.0 | 0.00 | 0.01 | 0.01 | 46 | 1011.6 |
| 20260507191304 | 62 | 264 | 6.0 | 9.0 | 0.00 | 0.01 | 0.01 | 45 | 1011.4 |
| 20260507190801 | 61 | 64 | 1.0 | 6.0 | 0.00 | 0.01 | 0.01 | 49 | 1011.6 |
| 20260507190300 | 60 | 220 | 4.0 | 4.0 | 0.00 | 0.01 | 0.01 | 44 | 1011.4 |
| 20260507185758 | 61 | 96 | 1.0 | 2.0 | 0.00 | 0.01 | 0.01 | 45 | 1011.4 |
| 20260507185254 | 60 | 234 | 1.0 | 4.0 | 0.00 | 0.01 | 0.01 | 43 | 1011.7 |
| 20260507184752 | 60 | 59 | 2.0 | 6.0 | 0.00 | 0.01 | 0.01 | 47 | 1011.6 |
| 20260507184250 | 62 | 215 | 5.0 | 7.0 | 0.00 | 0.01 | 0.01 | 49 | 1011.5 |
| 20260507183747 | 60 | 229 | 6.0 | 9.0 | 0.00 | 0.01 | 0.01 | 49 | 1011.6 |
| 20260507183244 | 63 | 248 | 3.0 | 4.0 | 0.00 | 0.01 | 0.01 | 47 | 1011.5 |
| 20260507182742 | 61 | 53 | 3.0 | 3.0 | 0.00 | 0.01 | 0.01 | 52 | 1011.9 |
| 20260507182241 | 60 | 302 | 1.0 | 3.0 | 0.00 | 0.01 | 0.01 | 47 | 1011.6 |
| 20260507181739 | 62 | 266 | 0.0 | 2.0 | 0.00 | 0.01 | 0.01 | 43 | 1011.5 |
| 20260507181235 | 62 | 271 | 10.0 | 13.0 | 0.00 | 0.01 | 0.01 | 42 | 1011.5 |
| 20260507180732 | 62 | 259 | 1.0 | 8.0 | 0.00 | 0.01 | 0.01 | 48 | 1011.6 |
| 20260507180229 | 62 | 257 | 3.0 | 7.0 | 0.00 | 0.01 | 0.01 | 50 | 1011.7 |
| 20260507175724 | 62 | 256 | 6.0 | 7.0 | 0.00 | 0.01 | 0.01 | 42 | 1011.5 |
| 20260507175221 | 61 | 120 | 1.0 | 7.0 | 0.00 | 0.01 | 0.01 | 46 | 1011.7 |
| 20260507174719 | 60 | 253 | 1.0 | 6.0 | 0.00 | 0.01 | 0.01 | 45 | 1012.0 |
| 20260507174217 | 61 | 88 | 2.0 | 4.0 | 0.00 | 0.01 | 0.01 | 45 | 1011.9 |
| 20260507173714 | 60 | 107 | 1.0 | 9.0 | 0.00 | 0.01 | 0.01 | 43 | 1012.0 |
| 20260507173210 | 62 | 224 | 5.0 | 6.0 | 0.00 | 0.01 | 0.01 | 49 | 1012.2 |
| 20260507172707 | 60 | 131 | 0.0 | 3.0 | 0.00 | 0.01 | 0.01 | 44 | 1012.2 |
| 20260507172204 | 59 | 217 | 0.0 | 4.0 | 0.00 | 0.01 | 0.01 | 49 | 1012.3 |
| 20260507171704 | 60 | 272 | 2.0 | 4.0 | 0.00 | 0.01 | 0.01 | 51 | 1012.5 |
| 20260507171202 | 61 | 252 | 3.0 | 6.0 | 0.00 | 0.01 | 0.01 | 49 | 1012.3 |
| 20260507170659 | 59 | 216 | 0.0 | 4.0 | 0.00 | 0.01 | 0.01 | 53 | 1012.7 |
| 20260507170156 | 60 | 261 | 1.0 | 8.0 | 0.00 | 0.01 | 0.01 | 48 | 1012.6 |
| 20260507165651 | 60 | 260 | 4.0 | 8.0 | 0.00 | 0.01 | 0.01 | 47 | 1012.7 |
| 20260507165148 | 60 | 106 | 1.0 | 4.0 | 0.00 | 0.01 | 0.01 | 46 | 1012.8 |
| 20260507164643 | 59 | 125 | 4.0 | 9.0 | 0.00 | 0.01 | 0.01 | 52 | 1012.7 |
| 20260507164141 | 61 | 314 | 5.0 | 7.0 | 0.00 | 0.01 | 0.01 | 50 | 1012.7 |
| 20260507163638 | 59 | 46 | 2.0 | 3.0 | 0.00 | 0.01 | 0.01 | 48 | 1012.9 |
| 20260507163136 | 60 | 2 | 0.0 | 1.0 | 0.00 | 0.01 | 0.01 | 46 | 1012.8 |
| 20260507162632 | 59 | 319 | 1.0 | 2.0 | 0.00 | 0.01 | 0.01 | 47 | 1013.0 |
| 20260507162128 | 58 | 237 | 1.0 | 3.0 | 0.00 | 0.01 | 0.01 | 53 | 1013.0 |
| 20260507161624 | 58 | 218 | 2.0 | 8.0 | 0.00 | 0.01 | 0.01 | 49 | 1013.1 |
| 20260507161121 | 59 | 226 | 4.0 | 7.0 | 0.00 | 0.01 | 0.01 | 49 | 1013.1 |
| 20260507160617 | 59 | 93 | 0.0 | 3.0 | 0.00 | 0.01 | 0.01 | 51 | 1013.2 |
| 20260507160114 | 58 | 251 | 3.0 | 4.0 | 0.00 | 0.01 | 0.01 | 52 | 1013.4 |
| 20260507155609 | 58 | 228 | 2.0 | 8.0 | 0.00 | 0.01 | 0.01 | 55 | 1013.5 |
| 20260507155106 | 58 | 84 | 1.0 | 4.0 | 0.00 | 0.01 | 0.01 | 52 | 1013.1 |
| 20260507154603 | 56 | 201 | 1.0 | 2.0 | 0.00 | 0.01 | 0.01 | 55 | 1013.2 |
| 20260507154100 | 58 | 196 | 2.0 | 7.0 | 0.00 | 0.01 | 0.01 | 55 | 1013.6 |
| 20260507153557 | 58 | 87 | 0.0 | 1.0 | 0.00 | 0.01 | 0.01 | 52 | 1013.2 |
| 20260507153054 | 57 | 211 | 4.0 | 6.0 | 0.00 | 0.01 | 0.01 | 58 | 1013.2 |
| 20260507152550 | 56 | 205 | 2.0 | 3.0 | 0.00 | 0.01 | 0.01 | 55 | 1013.3 |
| 20260507152046 | 57 | 206 | 3.0 | 3.0 | 0.00 | 0.01 | 0.01 | 53 | 1013.5 |
| 20260507151542 | 55 | 197 | 0.0 | 2.0 | 0.00 | 0.01 | 0.01 | 58 | 1013.4 |
| 20260507151039 | 54 | 191 | 1.0 | 6.0 | 0.00 | 0.01 | 0.01 | 58 | 1013.5 |
| 20260507150536 | 55 | 207 | 3.0 | 4.0 | 0.00 | 0.01 | 0.01 | 59 | 1013.5 |
| 20260507150033 | 56 | 107 | 1.0 | 3.0 | 0.00 | 0.01 | 0.01 | 54 | 1013.6 |
| 20260507145527 | 55 | 202 | 2.0 | 2.0 | 0.00 | 0.01 | 0.01 | 61 | 1013.5 |
| 20260507145026 | 54 | 202 | 2.0 | 4.0 | 0.00 | 0.01 | 0.01 | 64 | 1013.6 |
| 20260507144522 | 56 | 204 | 2.0 | 3.0 | 0.00 | 0.01 | 0.01 | 59 | 1014.0 |
| 20260507144020 | 58 | 171 | 2.0 | 3.0 | 0.00 | 0.01 | 0.01 | 55 | 1013.6 |
| 20260507143517 | 56 | 207 | 2.0 | 3.0 | 0.00 | 0.01 | 0.01 | 59 | 1013.7 |
| 20260507143014 | 55 | 92 | 0.0 | 3.0 | 0.00 | 0.01 | 0.01 | 62 | 1014.0 |
| 20260507142509 | 56 | 84 | 1.0 | 2.0 | 0.00 | 0.01 | 0.01 | 61 | 1014.1 |
| 20260507142007 | 55 | 204 | 1.0 | 3.0 | 0.00 | 0.01 | 0.01 | 57 | 1014.2 |
| 20260507141502 | 55 | 196 | 1.0 | 1.0 | 0.00 | 0.01 | 0.01 | 64 | 1014.2 |
| 20260507140959 | 54 | 97 | 1.0 | 3.0 | 0.00 | 0.01 | 0.01 | 64 | 1014.2 |
| 20260507140456 | 55 | 190 | 2.0 | 3.0 | 0.00 | 0.01 | 0.01 | 68 | 1014.1 |
| 20260507135953 | 56 | 187 | 1.0 | 2.0 | 0.00 | 0.01 | 0.01 | 69 | 1014.5 |
| 20260507135450 | 56 | 150 | 0.0 | 1.0 | 0.00 | 0.01 | 0.01 | 64 | 1014.3 |
| 20260507134948 | 55 | 192 | 3.0 | 4.0 | 0.00 | 0.01 | 0.01 | 75 | 1014.5 |
| 20260507134444 | 55 | 137 | 0.0 | 1.0 | 0.00 | 0.01 | 0.01 | 71 | 1014.7 |
| 20260507133940 | 54 | 182 | 1.0 | 3.0 | 0.00 | 0.01 | 0.01 | 76 | 1014.6 |
| 20260507133436 | 54 | 192 | 3.0 | 3.0 | 0.00 | 0.01 | 0.01 | 80 | 1014.6 |
| 20260507132930 | 53 | 193 | 2.0 | 3.0 | 0.00 | 0.01 | 0.01 | 83 | 1014.6 |
| 20260507132425 | 54 | 128 | 0.0 | 0.0 | 0.00 | 0.01 | 0.01 | 84 | 1014.8 |
| 20260507131921 | 51 | 131 | 0.0 | 0.0 | 0.00 | 0.01 | 0.01 | 87 | 1014.5 |
| 20260507131419 | 50 | 181 | 0.0 | 1.0 | 0.00 | 0.01 | 0.01 | 88 | 1014.7 |
| 20260507130916 | 51 | 188 | 2.0 | 3.0 | 0.00 | 0.01 | 0.01 | 87 | 1014.7 |
| 20260507130413 | 51 | 176 | 1.0 | 2.0 | 0.00 | 0.01 | 0.01 | 89 | 1014.8 |
| 20260507125912 | 50 | 163 | 0.0 | 0.0 | 0.00 | 0.01 | 0.01 | 88 | 1014.6 |
| 20260507125409 | 50 | 163 | 0.0 | 0.0 | 0.00 | 0.01 | 0.01 | 88 | 1014.7 |
| 20260507124906 | 50 | 163 | 0.0 | 0.0 | 0.00 | 0.01 | 0.01 | 89 | 1014.8 |
| 20260507124402 | 49 | 163 | 0.0 | 0.0 | 0.00 | 0.01 | 0.01 | 89 | 1014.7 |
| 20260507123901 | 49 | 163 | 0.0 | 0.0 | 0.00 | 0.01 | 0.01 | 89 | 1014.8 |
| 20260507123357 | 49 | 163 | 0.0 | 0.0 | 0.00 | 0.01 | 0.01 | 91 | 1014.9 |
| 20260507122854 | 49 | 145 | 0.0 | 0.0 | 0.00 | 0.01 | 0.01 | 93 | 1015.0 |
| 20260507122349 | 48 | 145 | 0.0 | 0.0 | 0.00 | 0.01 | 0.01 | 94 | 1014.9 |
| 20260507121846 | 49 | 126 | 0.0 | 0.0 | 0.00 | 0.01 | 0.01 | 96 | 1015.2 |
| 20260507121341 | 49 | 126 | 0.0 | 0.0 | 0.00 | 0.01 | 0.01 | 96 | 1014.9 |
| 20260507120838 | 48 | 125 | 0.0 | 0.0 | 0.00 | 0.01 | 0.01 | 97 | 1014.7 |
| 20260507120335 | 48 | 125 | 0.0 | 0.0 | 0.00 | 0.01 | 0.01 | 97 | 1014.7 |
| 20260507115831 | 48 | 125 | 0.0 | 0.0 | 0.00 | 0.01 | 0.01 | 97 | 1014.7 |
| 20260507115326 | 48 | 125 | 0.0 | 0.0 | 0.00 | 0.01 | 0.01 | 97 | 1014.6 |
| 20260507114822 | 48 | 126 | 0.0 | 0.0 | 0.00 | 0.01 | 0.01 | 97 | 1014.6 |
| 20260507114320 | 48 | 126 | 0.0 | 0.0 | 0.00 | 0.01 | 0.01 | 97 | 1014.4 |
| 20260507113817 | 48 | 125 | 0.0 | 0.0 | 0.00 | 0.01 | 0.01 | 97 | 1014.4 |
| 20260507113314 | 48 | 125 | 0.0 | 0.0 | 0.00 | 0.01 | 0.01 | 98 | 1014.4 |
| 20260507112812 | 47 | 125 | 0.0 | 0.0 | 0.00 | 0.01 | 0.01 | 98 | 1014.3 |
| 20260507112308 | 47 | 166 | 0.0 | 0.0 | 0.00 | 0.01 | 0.01 | 98 | 1014.3 |
| 20260507111807 | 47 | 173 | 0.0 | 0.0 | 0.00 | 0.01 | 0.01 | 98 | 1014.3 |
| 20260507111303 | 47 | 173 | 0.0 | 0.0 | 0.00 | 0.01 | 0.01 | 98 | 1014.2 |
| 20260507110759 | 47 | 173 | 0.0 | 0.0 | 0.00 | 0.01 | 0.01 | 98 | 1014.2 |
| 20260507110255 | 47 | 173 | 0.0 | 0.0 | 0.00 | 0.01 | 0.01 | 98 | 1014.2 |
| 20260507105752 | 47 | 173 | 0.0 | 0.0 | 0.00 | 0.01 | 0.01 | 98 | 1014.3 |
| 20260507105248 | 47 | 173 | 0.0 | 0.0 | 0.00 | 0.01 | 0.01 | 98 | 1013.9 |
| 20260507104746 | 47 | 173 | 0.0 | 0.0 | 0.00 | 0.01 | 0.01 | 98 | 1014.0 |
| 20260507104242 | 47 | 173 | 0.0 | 0.0 | 0.00 | 0.01 | 0.01 | 98 | 1013.9 |
| 20260507103738 | 47 | 173 | 0.0 | 0.0 | 0.00 | 0.01 | 0.01 | 98 | 1014.0 |
| 20260507103234 | 47 | 173 | 0.0 | 0.0 | 0.00 | 0.01 | 0.01 | 97 | 1013.7 |
| 20260507102730 | 47 | 173 | 0.0 | 0.0 | 0.00 | 0.01 | 0.01 | 97 | 1013.7 |
| 20260507102227 | 47 | 173 | 0.0 | 0.0 | 0.00 | 0.01 | 0.01 | 97 | 1013.9 |
| 20260507101723 | 47 | 173 | 0.0 | 0.0 | 0.00 | 0.01 | 0.01 | 97 | 1014.0 |
| 20260507101219 | 47 | 173 | 0.0 | 0.0 | 0.00 | 0.01 | 0.01 | 97 | 1013.8 |
| 20260507100716 | 47 | 173 | 0.0 | 0.0 | 0.00 | 0.01 | 0.01 | 97 | 1013.7 |
| 20260507100215 | 47 | 173 | 0.0 | 0.0 | 0.00 | 0.01 | 0.01 | 97 | 1013.7 |
| 20260507095712 | 47 | 173 | 0.0 | 0.0 | 0.00 | 0.01 | 0.01 | 97 | 1013.9 |
| 20260507095209 | 47 | 173 | 0.0 | 0.0 | 0.00 | 0.01 | 0.01 | 97 | 1013.7 |
| 20260507094706 | 48 | 173 | 0.0 | 0.0 | 0.00 | 0.01 | 0.01 | 97 | 1013.7 |
| 20260507094203 | 47 | 173 | 0.0 | 0.0 | 0.00 | 0.01 | 0.01 | 97 | 1013.5 |
| 20260507093700 | 48 | 173 | 0.0 | 0.0 | 0.00 | 0.01 | 0.01 | 97 | 1013.6 |
| 20260507093158 | 48 | 173 | 0.0 | 0.0 | 0.00 | 0.01 | 0.01 | 97 | 1013.7 |
| 20260507092655 | 48 | 173 | 0.0 | 0.0 | 0.00 | 0.01 | 0.01 | 97 | 1013.5 |
| 20260507092151 | 48 | 173 | 0.0 | 0.0 | 0.00 | 0.01 | 0.01 | 97 | 1013.4 |
| 20260507091647 | 48 | 173 | 0.0 | 0.0 | 0.00 | 0.01 | 0.01 | 97 | 1013.4 |
| 20260507091143 | 48 | 173 | 0.0 | 0.0 | 0.00 | 0.01 | 0.01 | 98 | 1013.4 |
| 20260507090639 | 48 | 173 | 0.0 | 0.0 | 0.00 | 0.01 | 0.01 | 98 | 1013.5 |
| 20260507090137 | 48 | 173 | 0.0 | 0.0 | 0.00 | 0.01 | 0.01 | 98 | 1013.6 |
| 20260507085633 | 48 | 173 | 0.0 | 0.0 | 0.00 | 0.01 | 0.01 | 98 | 1013.6 |
| 20260507085130 | 49 | 134 | 0.0 | 0.0 | 0.00 | 0.01 | 0.01 | 98 | 1013.4 |
| 20260507084627 | 49 | 124 | 0.0 | 0.0 | 0.00 | 0.01 | 0.01 | 98 | 1013.4 |
| 20260507084124 | 49 | 124 | 0.0 | 0.0 | 0.00 | 0.01 | 0.01 | 98 | 1013.4 |
| 20260507083620 | 49 | 124 | 0.0 | 0.0 | 0.00 | 0.01 | 0.01 | 98 | 1013.5 |
| 20260507083117 | 49 | 124 | 0.0 | 0.0 | 0.00 | 0.01 | 0.01 | 98 | 1013.4 |
| 20260507082613 | 50 | 124 | 0.0 | 0.0 | 0.00 | 0.01 | 0.01 | 98 | 1013.6 |
| 20260507082110 | 50 | 124 | 0.0 | 0.0 | 0.00 | 0.01 | 0.01 | 98 | 1013.5 |
| 20260507081606 | 50 | 124 | 0.0 | 0.0 | 0.00 | 0.01 | 0.01 | 98 | 1013.5 |
| 20260507081103 | 50 | 124 | 0.0 | 0.0 | 0.00 | 0.01 | 0.01 | 98 | 1013.4 |
| 20260507080559 | 50 | 124 | 0.0 | 0.0 | 0.00 | 0.01 | 0.01 | 98 | 1013.5 |
| 20260507080056 | 50 | 124 | 0.0 | 0.0 | 0.00 | 0.01 | 0.01 | 98 | 1013.6 |
| 20260507075550 | 50 | 125 | 0.0 | 0.0 | 0.00 | 0.01 | 0.01 | 98 | 1013.5 |
| 20260507075047 | 50 | 125 | 0.0 | 0.0 | 0.00 | 0.01 | 0.01 | 98 | 1013.5 |
| 20260507074544 | 50 | 104 | 0.0 | 0.0 | 0.00 | 0.01 | 0.01 | 98 | 1013.6 |
| 20260507074043 | 50 | 104 | 0.0 | 0.0 | 0.00 | 0.01 | 0.01 | 98 | 1013.3 |
| 20260507073538 | 50 | 104 | 0.0 | 0.0 | 0.00 | 0.01 | 0.01 | 98 | 1013.4 |
| 20260507073035 | 50 | 104 | 0.0 | 0.0 | 0.00 | 0.01 | 0.01 | 98 | 1013.6 |
| 20260507072533 | 50 | 103 | 0.0 | 0.0 | 0.00 | 0.01 | 0.01 | 98 | 1013.3 |
| 20260507072030 | 50 | 103 | 0.0 | 0.0 | 0.00 | 0.01 | 0.01 | 98 | 1013.3 |
| 20260507071527 | 50 | 103 | 0.0 | 0.0 | 0.00 | 0.01 | 0.01 | 98 | 1013.5 |
| 20260507071024 | 50 | 103 | 0.0 | 0.0 | 0.00 | 0.01 | 0.01 | 98 | 1013.3 |
| 20260507070521 | 50 | 103 | 0.0 | 0.0 | 0.00 | 0.01 | 0.01 | 98 | 1013.5 |
| 20260507070018 | 50 | 103 | 0.0 | 0.0 | 0.00 | 0.01 | 0.01 | 98 | 1013.5 |
| 20260507065514 | 50 | 103 | 0.0 | 0.0 | 0.00 | 0.01 | 0.01 | 98 | 1013.3 |
| 20260507065011 | 50 | 103 | 0.0 | 0.0 | 0.00 | 0.01 | 0.01 | 98 | 1013.3 |
| 20260507064509 | 50 | 103 | 0.0 | 0.0 | 0.00 | 0.01 | 0.01 | 98 | 1013.2 |
| 20260507064007 | 50 | 103 | 0.0 | 0.0 | 0.00 | 0.01 | 0.01 | 98 | 1013.2 |
| 20260507063504 | 50 | 102 | 0.0 | 0.0 | 0.00 | 0.01 | 0.01 | 98 | 1013.3 |
| 20260507063001 | 50 | 102 | 0.0 | 0.0 | 0.00 | 0.01 | 0.01 | 98 | 1013.4 |
| 20260507062458 | 51 | 102 | 0.0 | 0.0 | 0.00 | 0.01 | 0.01 | 98 | 1013.3 |
| 20260507061955 | 51 | 101 | 0.0 | 0.0 | 0.00 | 0.01 | 0.01 | 98 | 1013.5 |
| 20260507061453 | 51 | 227 | 0.0 | 0.0 | 0.00 | 0.01 | 0.01 | 98 | 1013.4 |
| 20260507060951 | 51 | 229 | 0.0 | 0.0 | 0.00 | 0.01 | 0.01 | 98 | 1013.4 |
| 20260507060448 | 51 | 248 | 0.0 | 0.0 | 0.00 | 0.01 | 0.01 | 98 | 1013.5 |
| 20260507055944 | 50 | 245 | 0.0 | 0.0 | 0.00 | 0.01 | 0.01 | 98 | 1013.5 |
| 20260507055440 | 51 | 245 | 0.0 | 0.0 | 0.00 | 0.01 | 0.01 | 98 | 1013.6 |
| 20260507054937 | 50 | 245 | 0.0 | 0.0 | 0.00 | 0.01 | 0.01 | 98 | 1013.4 |
| 20260507054433 | 51 | 245 | 0.0 | 0.0 | 0.00 | 0.01 | 0.01 | 98 | 1013.7 |
| 20260507053930 | 51 | 245 | 0.0 | 0.0 | 0.00 | 0.01 | 0.01 | 98 | 1013.6 |
| 20260507053428 | 51 | 245 | 0.0 | 0.0 | 0.00 | 0.01 | 0.01 | 98 | 1013.8 |
| 20260507052926 | 51 | 245 | 0.0 | 0.0 | 0.00 | 0.01 | 0.01 | 98 | 1013.9 |
| 20260507052423 | 51 | 245 | 0.0 | 0.0 | 0.00 | 0.01 | 0.01 | 98 | 1013.9 |
| 20260507051920 | 51 | 245 | 0.0 | 0.0 | 0.07 | 0.01 | 0.01 | 98 | 1013.8 |
| 20260507051418 | 51 | 245 | 0.0 | 0.0 | 0.07 | 0.01 | 0.01 | 98 | 1013.8 |
| 20260507050915 | 51 | 245 | 0.0 | 0.0 | 0.00 | 0.00 | 0.00 | 98 | 1014.0 |
| 20260507050411 | 51 | 245 | 0.0 | 0.0 | 0.00 | 0.00 | 0.00 | 98 | 1013.9 |
| 20260507045908 | 51 | 245 | 0.0 | 0.0 | 0.00 | 0.00 | 0.00 | 98 | 1014.1 |
| 20260507045404 | 51 | 245 | 0.0 | 0.0 | 0.00 | 0.00 | 0.00 | 98 | 1013.9 |
| 20260507044857 | 51 | 245 | 0.0 | 0.0 | 0.00 | 0.00 | 0.00 | 98 | 1013.8 |
| 20260507044353 | 51 | 245 | 0.0 | 0.0 | 0.00 | 0.00 | 0.00 | 98 | 1013.9 |
| 20260507043849 | 51 | 244 | 0.0 | 0.0 | 0.00 | 0.00 | 0.00 | 98 | 1014.1 |
| 20260507043345 | 51 | 249 | 0.0 | 0.0 | 0.00 | 0.00 | 0.00 | 98 | 1013.8 |
| 20260507042841 | 51 | 249 | 0.0 | 0.0 | 0.00 | 0.00 | 0.00 | 98 | 1013.7 |
| 20260507042337 | 51 | 249 | 0.0 | 0.0 | 0.00 | 0.00 | 0.00 | 98 | 1013.7 |
| 20260507041829 | 51 | 249 | 0.0 | 0.0 | 0.00 | 0.00 | 0.00 | 98 | 1013.8 |
| 20260507041326 | 51 | 249 | 0.0 | 0.0 | 0.00 | 0.00 | 0.00 | 98 | 1013.9 |
| 20260507040823 | 51 | 249 | 0.0 | 0.0 | 0.00 | 0.00 | 0.00 | 98 | 1013.7 |
| 20260507040319 | 51 | 249 | 0.0 | 0.0 | 0.00 | 0.54 | 0.54 | 98 | 1013.6 |
| 20260507035815 | 51 | 250 | 0.0 | 0.0 | 0.00 | 0.54 | 0.54 | 98 | 1013.7 |
| 20260507035310 | 51 | 251 | 0.0 | 0.0 | 0.00 | 0.54 | 0.54 | 98 | 1013.6 |
| 20260507034809 | 51 | 250 | 0.0 | 0.0 | 0.00 | 0.54 | 0.54 | 98 | 1013.6 |
| 20260507034305 | 51 | 250 | 0.0 | 0.0 | 0.00 | 0.54 | 0.54 | 98 | 1013.6 |
| 20260507033803 | 51 | 251 | 0.0 | 0.0 | 0.00 | 0.54 | 0.54 | 98 | 1013.6 |
| 20260507033301 | 51 | 251 | 0.0 | 0.0 | 0.00 | 0.54 | 0.54 | 98 | 1013.8 |
| 20260507032757 | 51 | 251 | 0.0 | 0.0 | 0.00 | 0.54 | 0.54 | 98 | 1013.7 |
| 20260507032253 | 51 | 251 | 0.0 | 0.0 | 0.00 | 0.54 | 0.54 | 98 | 1013.7 |
| 20260507031750 | 51 | 251 | 0.0 | 0.0 | 0.00 | 0.54 | 0.54 | 97 | 1013.8 |
| 20260507031247 | 51 | 251 | 0.0 | 0.0 | 0.00 | 0.54 | 0.54 | 97 | 1014.1 |
| 20260507030744 | 51 | 251 | 0.0 | 0.0 | 0.00 | 0.54 | 0.54 | 97 | 1014.2 |
| 20260507030241 | 51 | 251 | 0.0 | 0.0 | 0.00 | 0.54 | 0.54 | 97 | 1014.6 |
| 20260507025738 | 51 | 251 | 0.0 | 0.0 | 0.00 | 0.54 | 0.54 | 97 | 1014.3 |
| 20260507025235 | 51 | 251 | 0.0 | 0.0 | 0.00 | 0.54 | 0.54 | 97 | 1013.9 |
| 20260507024734 | 51 | 255 | 0.0 | 0.0 | 0.00 | 0.54 | 0.54 | 97 | 1013.9 |
| 20260507024231 | 51 | 310 | 0.0 | 0.0 | 0.07 | 0.54 | 0.54 | 97 | 1013.8 |
| 20260507023726 | 51 | 310 | 0.0 | 0.0 | 0.07 | 0.54 | 0.54 | 97 | 1013.6 |
| 20260507023223 | 51 | 310 | 0.0 | 1.0 | 0.00 | 0.53 | 0.53 | 97 | 1013.3 |
| 20260507022720 | 51 | 211 | 0.0 | 0.0 | 0.00 | 0.53 | 0.53 | 97 | 1013.5 |
| 20260507022216 | 51 | 211 | 0.0 | 0.0 | 0.00 | 0.53 | 0.53 | 97 | 1013.6 |
| 20260507021713 | 51 | 204 | 0.0 | 0.0 | 0.00 | 0.53 | 0.53 | 97 | 1014.1 |
| 20260507021208 | 51 | 203 | 0.0 | 0.0 | 0.00 | 0.53 | 0.53 | 97 | 1014.0 |
| 20260507020707 | 51 | 203 | 0.0 | 0.0 | 0.00 | 0.53 | 0.53 | 97 | 1013.5 |
| 20260507020202 | 51 | 203 | 0.0 | 0.0 | 0.00 | 0.53 | 0.53 | 97 | 1013.7 |
| 20260507015700 | 52 | 203 | 0.0 | 0.0 | 0.00 | 0.53 | 0.53 | 97 | 1013.5 |
| 20260507015157 | 52 | 203 | 0.0 | 0.0 | 0.00 | 0.53 | 0.53 | 97 | 1013.2 |
| 20260507014653 | 52 | 203 | 0.0 | 0.0 | 0.00 | 0.53 | 0.53 | 97 | 1013.3 |
| 20260507014149 | 52 | 203 | 0.0 | 0.0 | 0.00 | 0.53 | 0.53 | 97 | 1013.2 |
| 20260507013646 | 52 | 217 | 0.0 | 0.0 | 0.00 | 0.53 | 0.53 | 97 | 1012.9 |
| 20260507013144 | 52 | 218 | 0.0 | 0.0 | 0.00 | 0.53 | 0.53 | 97 | 1013.0 |
| 20260507012641 | 52 | 218 | 0.0 | 0.0 | 0.00 | 0.53 | 0.53 | 96 | 1013.1 |
| 20260507012131 | 52 | 218 | 0.0 | 0.0 | 0.00 | 0.53 | 0.53 | 96 | 1013.3 |
| 20260507011630 | 52 | 218 | 0.0 | 0.0 | 0.05 | 0.53 | 0.53 | 96 | 1013.6 |
| 20260507011125 | 52 | 218 | 1.0 | 1.0 | 0.05 | 0.53 | 0.53 | 96 | 1013.4 |
| 20260507010620 | 52 | 217 | 0.0 | 0.0 | 0.00 | 0.52 | 0.52 | 96 | 1013.0 |
| 20260507010116 | 52 | 218 | 0.0 | 1.0 | 0.00 | 0.52 | 0.52 | 96 | 1013.0 |
| 20260507005614 | 52 | 223 | 0.0 | 0.0 | 0.00 | 0.52 | 0.52 | 96 | 1013.1 |
| 20260507005110 | 52 | 223 | 0.0 | 0.0 | 0.00 | 0.52 | 0.52 | 95 | 1012.8 |
| 20260507004607 | 52 | 223 | 1.0 | 2.0 | 0.07 | 0.52 | 0.52 | 95 | 1013.2 |
| 20260507004104 | 52 | 248 | 1.0 | 3.0 | 0.07 | 0.52 | 0.52 | 96 | 1013.2 |
| 20260507003600 | 53 | 99 | 0.0 | 0.0 | 0.00 | 0.51 | 0.51 | 96 | 1012.8 |
| 20260507003055 | 53 | 99 | 0.0 | 0.0 | 0.00 | 0.51 | 0.51 | 97 | 1012.8 |
| 20260507002552 | 53 | 99 | 0.0 | 0.0 | 0.00 | 0.51 | 0.51 | 96 | 1012.8 |